Time;durP1;ratioP1;P1;durP2;ratioP2;P2;SDS_P1;SDS_P2;PMS_P1;PMS_P2;Temp;Humidity;BMP_temperature;BMP_pressure;BME280_temperature;BME280_humidity;BME280_pressure;Samples;Min_cycle;Max_cycle;Signal;HPM_P1;HPM_P2
2022/11/30 00:01:44;;;;;;;4.55;3.40;;;;;;;;;;5092036;28;20031;-44
2022/11/30 00:04:10;;;;;;;5.72;3.60;;;;;;;;;;5092904;28;20036;-44
2022/11/30 00:06:36;;;;;;;4.95;3.40;;;;;;;;;;5092034;28;20062;-44
2022/11/30 00:09:02;;;;;;;6.32;3.53;;;;;;;;;;5091525;28;20031;-44
2022/11/30 00:11:28;;;;;;;5.82;3.88;;;;;;;;;;5091853;28;20064;-47
2022/11/30 00:13:54;;;;;;;4.53;3.30;;;;;;;;;;5092922;28;20077;-44
2022/11/30 00:16:21;;;;;;;6.97;3.63;;;;;;;;;;5092573;28;20424;-44
2022/11/30 00:18:47;;;;;;;5.05;3.72;;;;;;;;;;5092183;28;20024;-44
2022/11/30 00:21:13;;;;;;;4.55;3.22;;;;;;;;;;5089841;28;20103;-44
2022/11/30 00:23:41;;;;;;;4.13;3.35;;;;;;;;;;5091797;28;20055;-44
2022/11/30 00:26:08;;;;;;;5.13;3.60;;;;;;;;;;5088099;28;20021;-45
2022/11/30 00:28:35;;;;;;;4.70;3.35;;;;;;;;;;5091893;28;20027;-44
2022/11/30 00:31:02;;;;;;;4.65;3.60;;;;;;;;;;5092408;28;20032;-44
2022/11/30 00:33:28;;;;;;;5.30;3.08;;;;;;;;;;5092343;28;20025;-47
2022/11/30 00:35:55;;;;;;;4.60;3.20;;;;;;;;;;5092456;28;20024;-44
2022/11/30 00:38:21;;;;;;;6.43;4.10;;;;;;;;;;5092303;28;20057;-44
2022/11/30 00:40:47;;;;;;;5.97;3.70;;;;;;;;;;5091365;28;20132;-44
2022/11/30 00:43:13;;;;;;;9.15;4.25;;;;;;;;;;5089433;28;20051;-44
2022/11/30 00:45:40;;;;;;;5.78;3.83;;;;;;;;;;5091861;28;20072;-44
2022/11/30 00:48:06;;;;;;;4.40;3.38;;;;;;;;;;5092342;28;20520;-44
2022/11/30 00:50:32;;;;;;;4.75;3.72;;;;;;;;;;5091433;28;20036;-44
2022/11/30 00:52:58;;;;;;;5.18;3.60;;;;;;;;;;5092472;28;20389;-44
2022/11/30 00:55:24;;;;;;;5.45;3.80;;;;;;;;;;5092208;28;20047;-44
2022/11/30 00:57:50;;;;;;;5.45;3.90;;;;;;;;;;5091180;28;20020;-44
2022/11/30 01:00:16;;;;;;;5.78;4.20;;;;;;;;;;5092266;28;20424;-44
2022/11/30 01:02:42;;;;;;;4.13;3.53;;;;;;;;;;5085519;28;20515;-44
2022/11/30 01:05:08;;;;;;;4.20;3.47;;;;;;;;;;5092651;28;20024;-44
2022/11/30 01:07:34;;;;;;;6.00;4.20;;;;;;;;;;5090921;28;20024;-43
2022/11/30 01:10:00;;;;;;;5.03;3.92;;;;;;;;;;5089680;28;20062;-44
2022/11/30 01:12:26;;;;;;;6.60;3.75;;;;;;;;;;5090876;28;20094;-47
2022/11/30 01:14:52;;;;;;;4.82;4.03;;;;;;;;;;5091459;28;20030;-44
2022/11/30 01:17:18;;;;;;;4.78;3.80;;;;;;;;;;5090052;28;20472;-47
2022/11/30 01:19:44;;;;;;;4.25;3.45;;;;;;;;;;5089421;28;20111;-44
2022/11/30 01:22:10;;;;;;;5.45;3.75;;;;;;;;;;5091424;28;20031;-44
2022/11/30 01:24:36;;;;;;;4.97;4.13;;;;;;;;;;5091104;28;20028;-44
2022/11/30 01:27:02;;;;;;;7.75;5.18;;;;;;;;;;5090987;28;20024;-44
2022/11/30 01:29:28;;;;;;;5.45;3.92;;;;;;;;;;5091547;28;20465;-47
2022/11/30 01:31:54;;;;;;;5.72;3.80;;;;;;;;;;5088227;28;20111;-44
2022/11/30 01:34:20;;;;;;;4.93;3.83;;;;;;;;;;5090280;28;20024;-44
2022/11/30 01:36:47;;;;;;;5.68;4.55;;;;;;;;;;5074903;28;20025;-44
2022/11/30 01:39:13;;;;;;;5.50;3.70;;;;;;;;;;5090455;28;20020;-44
2022/11/30 01:41:40;;;;;;;5.03;4.20;;;;;;;;;;5089318;28;20044;-44
2022/11/30 01:44:05;;;;;;;5.53;3.65;;;;;;;;;;5091622;28;20073;-44
2022/11/30 01:46:43;;;;;;;5.05;4.40;;;;;;;;;;5089896;28;20468;-45
2022/11/30 01:49:09;;;;;;;5.90;3.95;;;;;;;;;;5091398;28;20125;-44
2022/11/30 01:51:37;;;;;;;5.32;3.95;;;;;;;;;;5090310;28;20128;-44
2022/11/30 01:54:05;;;;;;;5.10;3.65;;;;;;;;;;5090597;28;20021;-44
2022/11/30 01:56:31;;;;;;;6.13;3.90;;;;;;;;;;5089957;28;20035;-44
2022/11/30 01:58:57;;;;;;;5.63;3.83;;;;;;;;;;5090250;28;20028;-44
2022/11/30 02:01:24;;;;;;;5.20;4.07;;;;;;;;;;5090211;28;20020;-44
2022/11/30 02:04:02;;;;;;;5.25;3.78;;;;;;;;;;5090181;28;20036;-44
2022/11/30 02:06:28;;;;;;;5.57;3.78;;;;;;;;;;5090009;28;20020;-47
2022/11/30 02:08:54;;;;;;;5.57;4.13;;;;;;;;;;5091081;28;20024;-44
2022/11/30 02:11:20;;;;;;;6.32;4.07;;;;;;;;;;5087645;28;20053;-44
2022/11/30 02:13:52;;;;;;;4.70;3.80;;;;;;;;;;5090108;28;20686;-44
2022/11/30 02:16:37;;;;;;;4.50;3.58;;;;;;;;;;5090540;28;20181;-44
2022/11/30 02:19:06;;;;;;;5.07;3.92;;;;;;;;;;5092134;28;20032;-44
2022/11/30 02:22:01;;;;;;;4.70;3.92;;;;;;;;;;5089430;28;20056;-44
2022/11/30 02:24:36;;;;;;;5.97;4.00;;;;;;;;;;5073719;28;20111;-47
2022/11/30 02:27:08;;;;;;;5.18;4.00;;;;;;;;;;5090471;28;20024;-44
2022/11/30 02:29:36;;;;;;;4.68;3.53;;;;;;;;;;5089446;28;20039;-44
2022/11/30 02:32:02;;;;;;;5.47;3.60;;;;;;;;;;5101181;28;20028;-44
2022/11/30 02:34:29;;;;;;;4.90;3.72;;;;;;;;;;5090420;28;20077;-47
2022/11/30 02:36:57;;;;;;;4.93;3.70;;;;;;;;;;5089028;28;20420;-44
2022/11/30 02:39:23;;;;;;;5.07;3.60;;;;;;;;;;5091197;28;20369;-44
2022/11/30 02:41:49;;;;;;;4.90;3.67;;;;;;;;;;5089311;28;20057;-45
2022/11/30 02:44:15;;;;;;;5.75;4.20;;;;;;;;;;5090568;28;20046;-44
2022/11/30 02:47:01;;;;;;;6.07;4.18;;;;;;;;;;5090006;28;20118;-44
2022/11/30 02:49:54;;;;;;;5.38;3.70;;;;;;;;;;5090512;28;20044;-47
2022/11/30 02:52:23;;;;;;;5.65;3.72;;;;;;;;;;5083027;28;20384;-44
2022/11/30 02:54:49;;;;;;;4.72;4.10;;;;;;;;;;5083084;28;20038;-44
2022/11/30 02:57:15;;;;;;;6.30;4.55;;;;;;;;;;5090395;28;20020;-44
2022/11/30 02:59:41;;;;;;;5.28;3.80;;;;;;;;;;5089941;28;20028;-44
2022/11/30 03:02:07;;;;;;;5.95;4.65;;;;;;;;;;5090225;28;20039;-44
2022/11/30 03:04:33;;;;;;;4.55;3.72;;;;;;;;;;5090084;28;20103;-45
2022/11/30 03:06:59;;;;;;;4.63;3.65;;;;;;;;;;5093043;28;20406;-44
2022/11/30 03:09:25;;;;;;;4.85;3.83;;;;;;;;;;5084568;28;20059;-47
2022/11/30 03:11:51;;;;;;;6.25;4.50;;;;;;;;;;5088461;28;20024;-44
2022/11/30 03:14:17;;;;;;;4.68;3.67;;;;;;;;;;5093984;28;20099;-44
2022/11/30 03:16:43;;;;;;;5.90;4.38;;;;;;;;;;5090880;28;20062;-44
2022/11/30 03:19:09;;;;;;;5.18;4.07;;;;;;;;;;5096430;28;20031;-44
2022/11/30 03:21:35;;;;;;;6.28;3.65;;;;;;;;;;5092733;28;20461;-44
2022/11/30 03:24:01;;;;;;;4.68;3.90;;;;;;;;;;5093625;28;20024;-44
2022/11/30 03:26:27;;;;;;;5.35;4.30;;;;;;;;;;5092785;28;20034;-47
2022/11/30 03:28:53;;;;;;;5.18;3.90;;;;;;;;;;5090863;28;20024;-44
2022/11/30 03:31:19;;;;;;;3.95;3.28;;;;;;;;;;5093214;28;20525;-44
2022/11/30 03:33:45;;;;;;;5.80;3.70;;;;;;;;;;5092856;28;20123;-44
2022/11/30 03:36:12;;;;;;;4.70;3.53;;;;;;;;;;5093217;28;20104;-44
2022/11/30 03:38:38;;;;;;;5.32;4.10;;;;;;;;;;5092884;28;20024;-44
2022/11/30 03:41:05;;;;;;;5.95;4.18;;;;;;;;;;5092706;28;20358;-44
2022/11/30 03:43:31;;;;;;;4.38;3.60;;;;;;;;;;5094576;27;20052;-44
2022/11/30 03:45:57;;;;;;;4.32;3.40;;;;;;;;;;5092744;28;20128;-44
2022/11/30 03:48:24;;;;;;;4.05;3.35;;;;;;;;;;5093001;28;20110;-44
2022/11/30 03:50:50;;;;;;;4.97;3.78;;;;;;;;;;5091925;28;20032;-44
2022/11/30 03:53:19;;;;;;;3.63;3.15;;;;;;;;;;5092781;28;20016;-44
2022/11/30 03:55:46;;;;;;;4.88;3.60;;;;;;;;;;5092206;28;20052;-44
2022/11/30 03:58:12;;;;;;;4.68;3.38;;;;;;;;;;5092843;28;20032;-44
2022/11/30 04:00:38;;;;;;;4.95;3.80;;;;;;;;;;5092113;28;20204;-44
2022/11/30 04:03:04;;;;;;;4.03;3.30;;;;;;;;;;5093016;28;20099;-44
2022/11/30 04:05:30;;;;;;;5.03;3.70;;;;;;;;;;5089031;28;20103;-47
2022/11/30 04:07:56;;;;;;;5.65;4.05;;;;;;;;;;5092977;28;20039;-44
2022/11/30 04:10:23;;;;;;;4.75;3.75;;;;;;;;;;5094812;28;20474;-44
2022/11/30 04:12:49;;;;;;;4.63;3.90;;;;;;;;;;5091944;28;20213;-44
2022/11/30 04:15:15;;;;;;;4.07;3.13;;;;;;;;;;5092791;28;20073;-44
2022/11/30 04:17:41;;;;;;;3.95;3.10;;;;;;;;;;5092139;28;20059;-44
2022/11/30 04:20:07;;;;;;;5.72;4.20;;;;;;;;;;5095237;28;20052;-44
2022/11/30 04:22:33;;;;;;;6.07;4.32;;;;;;;;;;5091953;28;20082;-44
2022/11/30 04:24:59;;;;;;;3.97;3.53;;;;;;;;;;5087608;28;20028;-44
2022/11/30 04:27:25;;;;;;;5.57;3.88;;;;;;;;;;5092273;28;20419;-44
2022/11/30 04:29:51;;;;;;;4.15;3.20;;;;;;;;;;5092375;28;20028;-44
2022/11/30 04:35:10;;;;;;;4.65;3.30;;;;;;;;;;5092255;28;20046;-44
2022/11/30 04:37:37;;;;;;;4.63;3.50;;;;;;;;;;5091161;28;20040;-44
2022/11/30 04:40:03;;;;;;;3.45;3.15;;;;;;;;;;5092456;28;20028;-44
2022/11/30 04:42:54;;;;;;;4.60;3.47;;;;;;;;;;5082596;27;20044;-47
2022/11/30 04:45:20;;;;;;;4.85;3.88;;;;;;;;;;5049782;28;20036;-44
2022/11/30 04:47:46;;;;;;;4.00;3.35;;;;;;;;;;5047829;28;20207;-44
2022/11/30 04:50:12;;;;;;;4.45;3.15;;;;;;;;;;5049060;28;20500;-45
2022/11/30 04:52:38;;;;;;;4.50;3.47;;;;;;;;;;5045932;28;20029;-44
2022/11/30 04:55:04;;;;;;;4.22;3.45;;;;;;;;;;5052291;28;20025;-44
2022/11/30 04:57:30;;;;;;;3.72;3.22;;;;;;;;;;5050650;28;20029;-47
2022/11/30 04:59:56;;;;;;;3.67;3.08;;;;;;;;;;5047609;28;20032;-44
2022/11/30 05:02:22;;;;;;;4.05;3.22;;;;;;;;;;5049840;28;20025;-44
2022/11/30 05:04:48;;;;;;;4.18;3.10;;;;;;;;;;5047319;28;20608;-44
2022/11/30 05:07:14;;;;;;;4.20;3.10;;;;;;;;;;5051163;28;20025;-44
2022/11/30 05:09:40;;;;;;;5.32;3.60;;;;;;;;;;5044543;28;20033;-44
2022/11/30 05:12:06;;;;;;;3.50;3.03;;;;;;;;;;5049803;28;20112;-44
2022/11/30 05:14:32;;;;;;;6.25;3.10;;;;;;;;;;5050457;28;20075;-44
2022/11/30 05:16:58;;;;;;;3.88;3.40;;;;;;;;;;5050844;28;20025;-44
2022/11/30 05:19:24;;;;;;;5.72;3.30;;;;;;;;;;5051174;28;20064;-44
2022/11/30 05:21:50;;;;;;;4.25;3.28;;;;;;;;;;5050435;28;20039;-45
2022/11/30 05:24:16;;;;;;;3.80;3.42;;;;;;;;;;5051420;28;20025;-44
2022/11/30 05:26:42;;;;;;;3.80;2.45;;;;;;;;;;5050153;28;20017;-44
2022/11/30 05:29:08;;;;;;;4.32;3.50;;;;;;;;;;5050562;28;20052;-44
2022/11/30 05:31:34;;;;;;;13.20;3.92;;;;;;;;;;5050183;28;20036;-44
2022/11/30 05:34:00;;;;;;;3.55;3.13;;;;;;;;;;5051426;28;20036;-44
2022/11/30 05:36:26;;;;;;;3.83;3.35;;;;;;;;;;5049602;28;20521;-47
2022/11/30 05:39:16;;;;;;;3.83;3.03;;;;;;;;;;5050526;28;20021;-44
2022/11/30 05:41:43;;;;;;;3.90;3.20;;;;;;;;;;5049712;28;20394;-44
2022/11/30 05:44:10;;;;;;;5.35;4.65;;;;;;;;;;5063257;28;20049;-44
2022/11/30 05:46:36;;;;;;;3.83;3.13;;;;;;;;;;5068653;28;20497;-44
2022/11/30 05:49:03;;;;;;;4.18;3.50;;;;;;;;;;5070675;28;20038;-44
2022/11/30 05:51:29;;;;;;;4.10;3.30;;;;;;;;;;5062490;28;20092;-47
2022/11/30 05:53:55;;;;;;;4.15;3.25;;;;;;;;;;5070596;28;20071;-44
2022/11/30 05:56:21;;;;;;;3.85;2.92;;;;;;;;;;5070177;28;20056;-44
2022/11/30 05:58:47;;;;;;;4.47;3.28;;;;;;;;;;5068738;28;20244;-44
2022/11/30 06:01:17;;;;;;;3.88;3.03;;;;;;;;;;5058059;28;20032;-44
2022/11/30 06:03:43;;;;;;;4.25;3.28;;;;;;;;;;5064287;28;20025;-44
2022/11/30 06:06:09;;;;;;;4.00;2.85;;;;;;;;;;5070104;28;20484;-45
2022/11/30 06:08:35;;;;;;;4.15;3.53;;;;;;;;;;5064558;28;20074;-44
2022/11/30 06:11:01;;;;;;;4.53;3.10;;;;;;;;;;5069223;28;20036;-44
2022/11/30 06:13:27;;;;;;;3.88;2.90;;;;;;;;;;5070893;28;20021;-47
2022/11/30 06:15:53;;;;;;;3.80;2.97;;;;;;;;;;5069245;28;20025;-44
2022/11/30 06:18:19;;;;;;;4.05;3.20;;;;;;;;;;5071275;28;20033;-44
2022/11/30 06:20:45;;;;;;;4.90;3.15;;;;;;;;;;5067845;28;20399;-44
2022/11/30 06:23:11;;;;;;;4.28;3.33;;;;;;;;;;5070393;28;20023;-44
2022/11/30 06:25:37;;;;;;;3.75;2.67;;;;;;;;;;5069452;28;20098;-44
2022/11/30 06:28:03;;;;;;;4.13;3.20;;;;;;;;;;5069895;28;20458;-44
2022/11/30 06:30:29;;;;;;;3.22;2.72;;;;;;;;;;5069203;28;20040;-47
2022/11/30 06:32:55;;;;;;;3.75;3.03;;;;;;;;;;5069370;28;20347;-45
2022/11/30 06:35:21;;;;;;;4.53;2.95;;;;;;;;;;5070169;28;20031;-44
2022/11/30 06:37:47;;;;;;;3.58;3.13;;;;;;;;;;5069143;28;20087;-44
2022/11/30 06:40:13;;;;;;;4.07;3.15;;;;;;;;;;5070958;28;20028;-44
2022/11/30 06:42:39;;;;;;;5.45;2.65;;;;;;;;;;5072780;28;20044;-44
2022/11/30 06:45:06;;;;;;;5.63;3.13;;;;;;;;;;5074645;28;20020;-44
2022/11/30 06:47:32;;;;;;;5.70;3.30;;;;;;;;;;5070645;28;20024;-44
2022/11/30 06:49:58;;;;;;;7.15;3.33;;;;;;;;;;5074350;28;20071;-45
2022/11/30 06:52:24;;;;;;;5.07;3.50;;;;;;;;;;5073479;28;20048;-45
2022/11/30 06:54:50;;;;;;;5.57;3.30;;;;;;;;;;5073455;28;20128;-45
2022/11/30 06:57:17;;;;;;;4.63;3.05;;;;;;;;;;5073335;28;20024;-44
2022/11/30 06:59:43;;;;;;;6.60;3.60;;;;;;;;;;5066608;28;20031;-45
2022/11/30 07:02:12;;;;;;;12.07;3.90;;;;;;;;;;5076388;28;20473;-44
2022/11/30 07:04:38;;;;;;;6.60;3.28;;;;;;;;;;5065655;28;20078;-44
2022/11/30 07:07:06;;;;;;;5.35;3.13;;;;;;;;;;5068645;28;20025;-44
2022/11/30 07:09:32;;;;;;;4.32;3.10;;;;;;;;;;5066750;28;20082;-44
2022/11/30 07:11:58;;;;;;;4.78;3.05;;;;;;;;;;5073717;28;20042;-44
2022/11/30 07:14:24;;;;;;;9.38;2.90;;;;;;;;;;5073955;28;20039;-44
2022/11/30 07:16:50;;;;;;;5.30;3.60;;;;;;;;;;5068457;28;20024;-45
2022/11/30 07:19:16;;;;;;;5.13;3.33;;;;;;;;;;5075767;28;20082;-44
2022/11/30 07:21:42;;;;;;;5.07;3.15;;;;;;;;;;5072712;28;20024;-44
2022/11/30 07:26:55;;;;;;;4.45;3.10;;;;;;;;;;5072426;28;20027;-45
2022/11/30 07:29:21;;;;;;;7.22;3.17;;;;;;;;;;5070468;28;20041;-44
2022/11/30 07:31:52;;;;;;;5.13;2.85;;;;;;;;;;5072628;28;20036;-45
2022/11/30 07:34:18;;;;;;;6.45;3.40;;;;;;;;;;5066287;28;20052;-47
2022/11/30 07:36:44;;;;;;;7.05;3.90;;;;;;;;;;5070336;28;20409;-44
2022/11/30 07:39:11;;;;;;;6.97;3.10;;;;;;;;;;5074212;28;20039;-45
2022/11/30 07:41:37;;;;;;;7.15;3.30;;;;;;;;;;5062314;28;20024;-45
2022/11/30 07:44:04;;;;;;;7.05;3.38;;;;;;;;;;5076117;27;20098;-44
2022/11/30 07:46:32;;;;;;;4.82;3.03;;;;;;;;;;5071574;28;20104;-47
2022/11/30 07:48:58;;;;;;;7.10;2.97;;;;;;;;;;5068042;28;20024;-44
2022/11/30 07:51:24;;;;;;;5.10;2.67;;;;;;;;;;5061012;28;20030;-44
2022/11/30 07:53:50;;;;;;;7.82;3.25;;;;;;;;;;5070129;28;20208;-44
2022/11/30 07:56:17;;;;;;;5.28;3.70;;;;;;;;;;5071461;28;20016;-45
2022/11/30 07:58:43;;;;;;;6.13;3.28;;;;;;;;;;5072531;28;20032;-45
2022/11/30 08:01:11;;;;;;;4.88;3.25;;;;;;;;;;5062697;28;20028;-45
2022/11/30 08:03:37;;;;;;;6.18;3.08;;;;;;;;;;5070426;28;20051;-44
2022/11/30 08:06:06;;;;;;;7.30;3.28;;;;;;;;;;5067577;28;20028;-44
2022/11/30 08:08:33;;;;;;;5.38;3.55;;;;;;;;;;5067074;28;20037;-45
2022/11/30 08:10:59;;;;;;;5.30;3.22;;;;;;;;;;5066188;28;20078;-45
2022/11/30 08:13:25;;;;;;;4.55;2.60;;;;;;;;;;5066041;28;20020;-45
2022/11/30 08:15:51;;;;;;;5.10;3.22;;;;;;;;;;5065770;28;20025;-45
2022/11/30 08:18:17;;;;;;;5.20;3.08;;;;;;;;;;5067164;28;20497;-45
2022/11/30 08:20:44;;;;;;;6.38;3.33;;;;;;;;;;5060474;28;20040;-45
2022/11/30 08:23:10;;;;;;;4.18;3.67;;;;;;;;;;5070822;28;20037;-45
2022/11/30 08:25:36;;;;;;;6.85;3.22;;;;;;;;;;5070733;28;20021;-45
2022/11/30 08:28:03;;;;;;;4.75;3.10;;;;;;;;;;5065143;28;20029;-45
2022/11/30 08:30:29;;;;;;;6.55;3.22;;;;;;;;;;5068537;28;20115;-47
2022/11/30 08:32:55;;;;;;;7.93;3.05;;;;;;;;;;5069312;28;20055;-44
2022/11/30 08:35:21;;;;;;;6.75;3.03;;;;;;;;;;5065749;28;20037;-45
2022/11/30 08:37:47;;;;;;;5.68;3.30;;;;;;;;;;5063627;28;20032;-44
2022/11/30 08:40:13;;;;;;;7.50;3.10;;;;;;;;;;5075228;28;20055;-45
2022/11/30 08:42:39;;;;;;;6.93;3.28;;;;;;;;;;5061636;28;20093;-45
2022/11/30 08:45:06;;;;;;;7.00;3.65;;;;;;;;;;5065948;28;20052;-45
2022/11/30 08:47:31;;;;;;;5.57;3.40;;;;;;;;;;5066728;28;20052;-45
2022/11/30 08:49:58;;;;;;;5.85;3.25;;;;;;;;;;5068898;28;20477;-44
2022/11/30 08:52:24;;;;;;;5.28;3.15;;;;;;;;;;5059402;28;20548;-45
2022/11/30 08:54:50;;;;;;;5.75;3.42;;;;;;;;;;5089381;28;20063;-45
2022/11/30 08:57:17;;;;;;;5.57;3.05;;;;;;;;;;5086440;28;20027;-45
2022/11/30 08:59:43;;;;;;;5.90;3.25;;;;;;;;;;5082927;28;20518;-45
2022/11/30 09:02:11;;;;;;;7.22;3.88;;;;;;;;;;5085472;28;20020;-45
2022/11/30 09:04:37;;;;;;;7.50;3.35;;;;;;;;;;5086059;28;20500;-45
2022/11/30 09:07:03;;;;;;;4.80;3.45;;;;;;;;;;5095907;28;20024;-44
2022/11/30 09:09:29;;;;;;;3.95;3.33;;;;;;;;;;5083199;28;20416;-48
2022/11/30 09:11:55;;;;;;;5.60;2.78;;;;;;;;;;5095218;28;20504;-44
2022/11/30 09:14:21;;;;;;;5.32;2.63;;;;;;;;;;5089968;28;20031;-45
2022/11/30 09:16:47;;;;;;;7.72;3.30;;;;;;;;;;5089813;28;20020;-44
2022/11/30 09:19:13;;;;;;;4.65;3.30;;;;;;;;;;5085578;28;20067;-45
2022/11/30 09:21:39;;;;;;;6.18;3.58;;;;;;;;;;5081881;28;20041;-45
2022/11/30 09:24:05;;;;;;;4.55;3.28;;;;;;;;;;5089901;28;20035;-44
2022/11/30 09:26:31;;;;;;;5.30;3.80;;;;;;;;;;5081799;28;20032;-46
2022/11/30 09:28:57;;;;;;;5.90;3.10;;;;;;;;;;5086485;28;20081;-44
2022/11/30 09:31:23;;;;;;;5.00;3.58;;;;;;;;;;5085736;28;20114;-44
2022/11/30 09:33:50;;;;;;;4.38;3.03;;;;;;;;;;5088587;28;20051;-44
2022/11/30 09:36:19;;;;;;;4.93;2.80;;;;;;;;;;5090887;28;20028;-44
2022/11/30 09:38:46;;;;;;;7.20;3.60;;;;;;;;;;5083923;28;20077;-44
2022/11/30 09:41:30;;;;;;;5.53;3.47;;;;;;;;;;5083724;28;20020;-46
2022/11/30 09:43:56;;;;;;;5.00;3.08;;;;;;;;;;5075118;28;20102;-45
2022/11/30 09:46:25;;;;;;;4.68;3.38;;;;;;;;;;5049218;28;20033;-45
2022/11/30 09:49:07;;;;;;;6.85;4.00;;;;;;;;;;5047875;28;20040;-44
2022/11/30 09:51:44;;;;;;;8.45;3.83;;;;;;;;;;5045847;28;20032;-44
2022/11/30 09:54:34;;;;;;;5.43;3.30;;;;;;;;;;5044509;28;20040;-44
2022/11/30 09:57:00;;;;;;;5.18;2.72;;;;;;;;;;5046032;28;20025;-44
2022/11/30 09:59:31;;;;;;;7.45;3.17;;;;;;;;;;5048589;28;20032;-47
2022/11/30 10:01:58;;;;;;;7.63;3.42;;;;;;;;;;5050054;28;20054;-45
2022/11/30 10:04:25;;;;;;;5.97;3.38;;;;;;;;;;5049478;28;20035;-44
2022/11/30 10:07:12;;;;;;;8.13;2.90;;;;;;;;;;5040038;28;20494;-44
2022/11/30 10:09:56;;;;;;;4.78;3.00;;;;;;;;;;5053807;28;20033;-46
2022/11/30 10:12:34;;;;;;;6.47;3.35;;;;;;;;;;5050241;28;20036;-45
2022/11/30 10:15:19;;;;;;;5.72;3.50;;;;;;;;;;5048742;28;20032;-44
2022/11/30 10:17:55;;;;;;;5.88;3.60;;;;;;;;;;5046630;28;20025;-45
2022/11/30 10:20:40;;;;;;;8.80;3.42;;;;;;;;;;5050715;28;20469;-45
2022/11/30 10:23:15;;;;;;;5.82;3.45;;;;;;;;;;5051387;28;20474;-45
2022/11/30 10:26:01;;;;;;;4.95;3.00;;;;;;;;;;5050308;28;20029;-45
2022/11/30 10:28:27;;;;;;;7.22;3.25;;;;;;;;;;5051605;28;20068;-48
2022/11/30 10:30:54;;;;;;;5.45;2.50;;;;;;;;;;5050819;28;20099;-44
2022/11/30 10:33:23;;;;;;;5.95;3.15;;;;;;;;;;5042155;28;20022;-45
2022/11/30 10:35:50;;;;;;;4.18;2.88;;;;;;;;;;5048766;28;20025;-45
2022/11/30 10:38:23;;;;;;;3.70;2.72;;;;;;;;;;5054265;28;20051;-44
2022/11/30 10:40:55;;;;;;;3.83;2.67;;;;;;;;;;5048600;28;20119;-46
2022/11/30 10:43:26;;;;;;;5.85;3.20;;;;;;;;;;5054079;28;20024;-45
2022/11/30 10:45:53;;;;;;;5.63;3.78;;;;;;;;;;5088233;28;20032;-45
2022/11/30 10:48:22;;;;;;;5.65;3.30;;;;;;;;;;5088356;28;20549;-44
2022/11/30 10:50:48;;;;;;;5.28;4.18;;;;;;;;;;5091966;28;20616;-44
2022/11/30 10:53:16;;;;;;;4.60;3.20;;;;;;;;;;5094374;28;20031;-48
2022/11/30 10:55:44;;;;;;;3.92;3.08;;;;;;;;;;5067407;28;20545;-45
2022/11/30 10:58:13;;;;;;;7.53;3.42;;;;;;;;;;5090269;28;20043;-45
2022/11/30 11:00:39;;;;;;;7.70;3.08;;;;;;;;;;5084739;28;20028;-45
2022/11/30 11:03:22;;;;;;;5.85;2.75;;;;;;;;;;5094260;28;20027;-45
2022/11/30 11:06:01;;;;;;;6.45;3.08;;;;;;;;;;5091010;28;20032;-45
2022/11/30 11:08:27;;;;;;;5.80;2.65;;;;;;;;;;5083956;28;20377;-48
2022/11/30 11:10:54;;;;;;;4.75;3.03;;;;;;;;;;5090270;28;20027;-45
2022/11/30 11:13:40;;;;;;;5.63;2.80;;;;;;;;;;5093873;28;20093;-45
2022/11/30 11:16:08;;;;;;;4.75;3.13;;;;;;;;;;5086995;28;20028;-45
2022/11/30 11:18:35;;;;;;;5.63;3.45;;;;;;;;;;5097429;28;20369;-45
2022/11/30 11:21:07;;;;;;;6.00;2.80;;;;;;;;;;5089458;28;20466;-45
2022/11/30 11:23:33;;;;;;;;;;;;;;;;;;5091894;28;20457;-47
2022/11/30 11:25:59;;;;;;;7.88;2.88;;;;;;;;;;5092859;28;19938;-45
2022/11/30 11:28:25;;;;;;;4.85;2.85;;;;;;;;;;5094044;28;20024;-45
2022/11/30 11:30:53;;;;;;;5.22;3.58;;;;;;;;;;5092964;28;20031;-45
2022/11/30 11:33:21;;;;;;;6.15;3.38;;;;;;;;;;5093928;28;20077;-45
2022/11/30 11:35:50;;;;;;;5.13;2.80;;;;;;;;;;5092441;28;20628;-45
2022/11/30 11:38:23;;;;;;;5.57;3.05;;;;;;;;;;5098893;28;20015;-45
2022/11/30 11:41:04;;;;;;;4.72;2.97;;;;;;;;;;5085998;28;20012;-45
2022/11/30 11:43:32;;;;;;;3.47;2.60;;;;;;;;;;5083738;28;20028;-47
2022/11/30 11:46:18;;;;;;;3.72;2.40;;;;;;;;;;5072995;28;20044;-45
2022/11/30 11:49:03;;;;;;;4.10;2.38;;;;;;;;;;5072554;28;20024;-45
2022/11/30 11:51:39;;;;;;;4.82;2.45;;;;;;;;;;5072440;28;20044;-49
2022/11/30 11:54:05;;;;;;;5.00;2.83;;;;;;;;;;5082563;28;20079;-45
2022/11/30 11:56:32;;;;;;;3.50;2.83;;;;;;;;;;5065839;28;20021;-46
2022/11/30 11:59:00;;;;;;;4.72;2.58;;;;;;;;;;5069711;28;20033;-45
2022/11/30 12:01:32;;;;;;;4.93;2.60;;;;;;;;;;5062720;28;20024;-46
2022/11/30 12:03:58;;;;;;;3.97;2.70;;;;;;;;;;5068167;28;20032;-43
2022/11/30 12:06:26;;;;;;;3.95;3.00;;;;;;;;;;5057901;28;20082;-43
2022/11/30 12:08:53;;;;;;;4.07;2.88;;;;;;;;;;5058246;28;20074;-43
2022/11/30 12:11:21;;;;;;;7.05;2.97;;;;;;;;;;5068300;28;20037;-43
2022/11/30 12:13:47;;;;;;;5.70;2.78;;;;;;;;;;5072140;28;20035;-43
2022/11/30 12:16:28;;;;;;;5.32;2.88;;;;;;;;;;5072894;28;20036;-43
2022/11/30 12:18:58;;;;;;;6.43;2.73;;;;;;;;;;5064986;28;20067;-43
2022/11/30 12:21:33;;;;;;;6.50;3.72;;;;;;;;;;5072730;28;20373;-43
2022/11/30 12:24:02;;;;;;;8.50;3.95;;;;;;;;;;5070821;28;20484;-42
2022/11/30 12:26:37;;;;;;;7.50;3.70;;;;;;;;;;5068574;28;20112;-46
2022/11/30 12:29:18;;;;;;;8.75;3.70;;;;;;;;;;5072152;28;20051;-44
2022/11/30 12:31:59;;;;;;;6.72;3.47;;;;;;;;;;5064411;28;20355;-43
2022/11/30 12:34:34;;;;;;;4.63;2.78;;;;;;;;;;5072456;28;20047;-43
2022/11/30 12:37:00;;;;;;;6.60;3.22;;;;;;;;;;5078688;28;20079;-43
2022/11/30 12:39:45;;;;;;;7.00;3.25;;;;;;;;;;5076358;28;20474;-43
2022/11/30 12:42:20;;;;;;;5.78;2.75;;;;;;;;;;5075451;28;20099;-43
2022/11/30 12:45:04;;;;;;;7.70;2.90;;;;;;;;;;5074121;28;20052;-43
2022/11/30 12:47:49;;;;;;;8.63;3.25;;;;;;;;;;5070928;28;20055;-45
2022/11/30 12:50:32;;;;;;;5.43;2.97;;;;;;;;;;5072121;28;20032;-43
2022/11/30 12:53:17;;;;;;;5.97;3.13;;;;;;;;;;5072054;28;20025;-43
2022/11/30 12:55:43;;;;;;;5.07;3.00;;;;;;;;;;5070025;28;20104;-43
2022/11/30 12:58:21;;;;;;;5.88;3.17;;;;;;;;;;5066161;28;20048;-43
2022/11/30 13:00:58;;;;;;;7.38;2.55;;;;;;;;;;5062667;28;20017;-43
2022/11/30 13:03:31;;;;;;;6.68;3.13;;;;;;;;;;5071734;28;20047;-43
2022/11/30 13:06:00;;;;;;;7.63;3.42;;;;;;;;;;5082745;28;20021;-43
2022/11/30 13:08:42;;;;;;;4.93;2.80;;;;;;;;;;5071308;28;20485;-42
2022/11/30 13:11:11;;;;;;;4.28;2.97;;;;;;;;;;5061954;28;20489;-43
2022/11/30 13:13:42;;;;;;;6.85;3.60;;;;;;;;;;5070791;28;20039;-43
2022/11/30 13:16:08;;;;;;;3.92;2.53;;;;;;;;;;5068937;28;20028;-43
2022/11/30 13:18:36;;;;;;;6.72;3.30;;;;;;;;;;5071906;28;20115;-43
2022/11/30 13:21:10;;;;;;;4.55;3.08;;;;;;;;;;5070987;28;20029;-42
2022/11/30 13:23:44;;;;;;;7.55;3.35;;;;;;;;;;5070885;28;20112;-43
2022/11/30 13:26:24;;;;;;;4.85;2.88;;;;;;;;;;5071016;28;20021;-43
2022/11/30 13:28:50;;;;;;;5.70;3.30;;;;;;;;;;5069540;28;20024;-42
2022/11/30 13:31:22;;;;;;;3.67;2.92;;;;;;;;;;5071324;28;20029;-43
2022/11/30 13:33:48;;;;;;;3.90;2.63;;;;;;;;;;5070284;28;20243;-43
2022/11/30 13:36:22;;;;;;;7.25;2.70;;;;;;;;;;5070669;28;20196;-43
2022/11/30 13:39:08;;;;;;;4.70;2.97;;;;;;;;;;5070589;28;20100;-43
2022/11/30 13:41:34;;;;;;;7.40;3.30;;;;;;;;;;5070305;28;20029;-43
2022/11/30 13:44:00;;;;;;;6.50;2.88;;;;;;;;;;5072060;28;20048;-43
2022/11/30 13:46:27;;;;;;;4.55;2.83;;;;;;;;;;5069879;28;20058;-43
2022/11/30 13:49:12;;;;;;;4.85;3.17;;;;;;;;;;5069588;28;20025;-44
2022/11/30 13:51:39;;;;;;;5.38;3.00;;;;;;;;;;5064067;28;20037;-43
2022/11/30 13:54:24;;;;;;;5.53;2.97;;;;;;;;;;5071002;28;20052;-43
2022/11/30 13:56:49;;;;;;;4.88;2.80;;;;;;;;;;5069629;28;20020;-43
2022/11/30 13:59:33;;;;;;;5.90;3.67;;;;;;;;;;5070701;28;20082;-43
2022/11/30 14:02:18;;;;;;;3.53;2.78;;;;;;;;;;5052129;28;20047;-43
2022/11/30 14:04:44;;;;;;;4.43;2.67;;;;;;;;;;5059661;28;20029;-43
2022/11/30 14:07:29;;;;;;;5.55;2.47;;;;;;;;;;5070361;28;20020;-43
2022/11/30 14:09:57;;;;;;;5.82;3.58;;;;;;;;;;5062478;28;20024;-43
2022/11/30 14:12:32;;;;;;;6.80;2.90;;;;;;;;;;5070110;28;20056;-43
2022/11/30 14:14:59;;;;;;;5.18;3.13;;;;;;;;;;5070843;28;20089;-43
2022/11/30 14:17:50;;;;;;;4.32;2.50;;;;;;;;;;5070148;28;20101;-43
2022/11/30 14:20:31;;;;;;;3.35;2.63;;;;;;;;;;5062409;28;20398;-43
2022/11/30 14:22:58;;;;;;;2.90;2.13;;;;;;;;;;5070801;28;20493;-43
2022/11/30 14:25:24;;;;;;;3.42;2.90;;;;;;;;;;5065723;28;20067;-43
2022/11/30 14:27:52;;;;;;;5.90;2.80;;;;;;;;;;5069151;28;20053;-43
2022/11/30 14:30:19;;;;;;;6.53;2.50;;;;;;;;;;5070568;28;20028;-43
2022/11/30 14:32:52;;;;;;;6.57;2.70;;;;;;;;;;5069483;28;20025;-43
2022/11/30 14:35:19;;;;;;;3.80;2.50;;;;;;;;;;5070940;28;20036;-43
2022/11/30 14:37:51;;;;;;;4.78;2.50;;;;;;;;;;5068647;28;20029;-43
2022/11/30 14:40:18;;;;;;;4.07;2.90;;;;;;;;;;5070932;28;20420;-43
2022/11/30 14:42:49;;;;;;;4.20;2.25;;;;;;;;;;5068626;28;20028;-43
2022/11/30 14:45:19;;;;;;;3.92;2.60;;;;;;;;;;5082299;28;20049;-43
2022/11/30 14:47:45;;;;;;;4.53;2.22;;;;;;;;;;5089324;28;20508;-43
2022/11/30 14:50:20;;;;;;;3.20;2.50;;;;;;;;;;5090948;28;20032;-43
2022/11/30 14:52:50;;;;;;;3.88;2.70;;;;;;;;;;5089511;28;20036;-43
2022/11/30 14:55:36;;;;;;;3.55;2.08;;;;;;;;;;5090365;28;20024;-43
2022/11/30 14:58:02;;;;;;;3.20;2.50;;;;;;;;;;5085594;28;20032;-43
2022/11/30 15:00:28;;;;;;;6.82;3.35;;;;;;;;;;5090415;28;20088;-46